sensor_id;sensor_type;location;lat;lon;timestamp;pressure;altitude;pressure_sealevel;temperature;humidity
80323;BME280;69636;52.372;13.610;2024-02-15T00:02:08;101508.63;;;8.05;100.00
80323;BME280;69636;52.372;13.610;2024-02-15T00:04:36;101511.28;;;8.05;100.00
80323;BME280;69636;52.372;13.610;2024-02-15T00:07:03;101509.34;;;8.18;100.00
80323;BME280;69636;52.372;13.610;2024-02-15T00:09:32;101516.06;;;8.11;100.00
80323;BME280;69636;52.372;13.610;2024-02-15T00:12:00;101507.91;;;8.14;100.00
80323;BME280;69636;52.372;13.610;2024-02-15T00:14:27;101508.38;;;8.20;100.00
80323;BME280;69636;52.372;13.610;2024-02-15T00:16:55;101513.19;;;8.14;100.00
80323;BME280;69636;52.372;13.610;2024-02-15T00:19:22;101514.38;;;8.10;100.00
80323;BME280;69636;52.372;13.610;2024-02-15T00:21:50;101514.38;;;8.10;100.00
80323;BME280;69636;52.372;13.610;2024-02-15T00:24:17;101509.94;;;8.11;100.00
80323;BME280;69636;52.372;13.610;2024-02-15T00:26:46;101508.75;;;8.26;100.00
80323;BME280;69636;52.372;13.610;2024-02-15T00:29:13;101510.06;;;8.21;100.00
80323;BME280;69636;52.372;13.610;2024-02-15T00:31:40;101510.19;;;8.19;100.00
80323;BME280;69636;52.372;13.610;2024-02-15T00:34:08;101512.00;;;8.18;100.00
80323;BME280;69636;52.372;13.610;2024-02-15T00:36:36;101517.28;;;8.18;100.00
80323;BME280;69636;52.372;13.610;2024-02-15T00:39:03;101515.84;;;8.14;100.00
80323;BME280;69636;52.372;13.610;2024-02-15T00:41:31;101510.31;;;8.17;100.00
80323;BME280;69636;52.372;13.610;2024-02-15T00:44:00;101512.25;;;8.27;100.00
80323;BME280;69636;52.372;13.610;2024-02-15T00:46:28;101521.88;;;8.28;100.00
80323;BME280;69636;52.372;13.610;2024-02-15T00:48:55;101518.97;;;8.31;100.00
80323;BME280;69636;52.372;13.610;2024-02-15T00:51:22;101510.56;;;8.26;100.00
80323;BME280;69636;52.372;13.610;2024-02-15T00:53:50;101519.81;;;8.20;100.00
80323;BME280;69636;52.372;13.610;2024-02-15T00:56:17;101534.22;;;8.16;100.00
80323;BME280;69636;52.372;13.610;2024-02-15T00:58:44;101530.75;;;8.15;100.00
80323;BME280;69636;52.372;13.610;2024-02-15T01:01:13;101527.59;;;8.10;100.00
80323;BME280;69636;52.372;13.610;2024-02-15T01:03:41;101521.13;;;8.14;100.00
80323;BME280;69636;52.372;13.610;2024-02-15T01:06:08;101523.03;;;8.12;100.00
80323;BME280;69636;52.372;13.610;2024-02-15T01:08:35;101517.97;;;8.09;100.00
80323;BME280;69636;52.372;13.610;2024-02-15T01:11:03;101513.66;;;8.08;100.00
80323;BME280;69636;52.372;13.610;2024-02-15T01:13:30;101513.06;;;8.16;100.00
80323;BME280;69636;52.372;13.610;2024-02-15T01:15:58;101514.66;;;8.30;100.00
80323;BME280;69636;52.372;13.610;2024-02-15T01:18:26;101519.09;;;8.18;100.00
80323;BME280;69636;52.372;13.610;2024-02-15T01:20:54;101506.47;;;8.22;100.00
80323;BME280;69636;52.372;13.610;2024-02-15T01:23:21;101507.19;;;8.24;100.00
80323;BME280;69636;52.372;13.610;2024-02-15T01:25:48;101508.38;;;8.20;100.00
80323;BME280;69636;52.372;13.610;2024-02-15T01:28:16;101500.94;;;8.25;100.00
80323;BME280;69636;52.372;13.610;2024-02-15T01:30:43;101502.97;;;8.21;100.00
80323;BME280;69636;52.372;13.610;2024-02-15T01:33:11;101502.50;;;8.16;100.00
80323;BME280;69636;52.372;13.610;2024-02-15T01:35:40;101503.56;;;8.13;100.00
80323;BME280;69636;52.372;13.610;2024-02-15T01:38:07;101504.78;;;8.21;100.00
80323;BME280;69636;52.372;13.610;2024-02-15T01:40:34;101496.13;;;8.18;100.00
80323;BME280;69636;52.372;13.610;2024-02-15T01:43:03;101497.81;;;8.20;100.00
80323;BME280;69636;52.372;13.610;2024-02-15T01:45:30;101499.25;;;8.24;100.00
80323;BME280;69636;52.372;13.610;2024-02-15T01:47:58;101497.56;;;8.23;100.00
80323;BME280;69636;52.372;13.610;2024-02-15T01:50:25;101492.50;;;8.20;100.00
80323;BME280;69636;52.372;13.610;2024-02-15T01:52:55;101494.94;;;8.23;100.00
80323;BME280;69636;52.372;13.610;2024-02-15T01:55:24;101501.41;;;8.18;100.00
80323;BME280;69636;52.372;13.610;2024-02-15T01:57:52;101490.59;;;8.22;100.00
80323;BME280;69636;52.372;13.610;2024-02-15T02:00:19;101493.97;;;8.24;100.00
80323;BME280;69636;52.372;13.610;2024-02-15T02:02:47;101483.38;;;8.24;100.00
80323;BME280;69636;52.372;13.610;2024-02-15T02:05:16;101485.78;;;8.15;100.00
80323;BME280;69636;52.372;13.610;2024-02-15T02:07:43;101481.69;;;8.23;100.00
80323;BME280;69636;52.372;13.610;2024-02-15T02:10:12;101474.50;;;8.25;100.00
80323;BME280;69636;52.372;13.610;2024-02-15T02:12:40;101486.63;;;8.16;100.00
80323;BME280;69636;52.372;13.610;2024-02-15T02:15:08;101484.81;;;8.16;100.00
80323;BME280;69636;52.372;13.610;2024-02-15T02:17:36;101485.66;;;8.17;100.00
80323;BME280;69636;52.372;13.610;2024-02-15T02:20:05;101478.56;;;8.17;100.00
80323;BME280;69636;52.372;13.610;2024-02-15T02:22:32;101480.03;;;8.22;100.00
80323;BME280;69636;52.372;13.610;2024-02-15T02:25:03;101480.38;;;8.17;100.00
80323;BME280;69636;52.372;13.610;2024-02-15T02:27:32;101483.13;;;8.15;100.00
80323;BME280;69636;52.372;13.610;2024-02-15T02:30:00;101482.91;;;8.18;100.00
80323;BME280;69636;52.372;13.610;2024-02-15T02:32:27;101481.69;;;8.23;100.00
80323;BME280;69636;52.372;13.610;2024-02-15T02:34:56;101483.38;;;8.24;100.00
80323;BME280;69636;52.372;13.610;2024-02-15T02:37:23;101479.53;;;8.28;100.00
80323;BME280;69636;52.372;13.610;2024-02-15T02:39:51;101487.00;;;8.23;100.00
80323;BME280;69636;52.372;13.610;2024-02-15T02:42:19;101479.91;;;8.23;100.00
80323;BME280;69636;52.372;13.610;2024-02-15T02:44:47;101485.44;;;8.20;100.00
80323;BME280;69636;52.372;13.610;2024-02-15T02:47:14;101475.81;;;8.30;100.00
80323;BME280;69636;52.372;13.610;2024-02-15T02:49:42;101481.69;;;8.23;100.00
80323;BME280;69636;52.372;13.610;2024-02-15T02:52:09;101475.44;;;8.24;100.00
80323;BME280;69636;52.372;13.610;2024-02-15T02:54:36;101485.53;;;8.18;100.00
80323;BME280;69636;52.372;13.610;2024-02-15T02:57:04;101477.25;;;8.23;100.00
80323;BME280;69636;52.372;13.610;2024-02-15T02:59:35;101477.25;;;8.23;100.00
80323;BME280;69636;52.372;13.610;2024-02-15T03:02:03;101480.16;;;8.31;100.00
80323;BME280;69636;52.372;13.610;2024-02-15T03:04:32;101475.81;;;8.30;100.00
80323;BME280;69636;52.372;13.610;2024-02-15T03:06:59;101486.41;;;8.30;100.00
80323;BME280;69636;52.372;13.610;2024-02-15T03:09:26;101486.75;;;8.26;100.00
80323;BME280;69636;52.372;13.610;2024-02-15T03:11:54;101492.28;;;8.34;100.00
80323;BME280;69636;52.372;13.610;2024-02-15T03:14:21;101486.50;;;8.29;100.00
80323;BME280;69636;52.372;13.610;2024-02-15T03:16:50;101495.41;;;8.28;100.00
80323;BME280;69636;52.372;13.610;2024-02-15T03:19:17;101485.78;;;8.27;100.00
80323;BME280;69636;52.372;13.610;2024-02-15T03:21:45;101485.69;;;8.28;100.00
80323;BME280;69636;52.372;13.610;2024-02-15T03:24:12;101483.03;;;8.28;100.00
80323;BME280;69636;52.372;13.610;2024-02-15T03:26:39;101481.94;;;8.31;100.00
80323;BME280;69636;52.372;13.610;2024-02-15T03:29:07;101480.38;;;8.28;100.00
80323;BME280;69636;52.372;13.610;2024-02-15T03:31:35;101480.97;;;8.32;100.00
80323;BME280;69636;52.372;13.610;2024-02-15T03:34:03;101487.47;;;8.28;100.00
80323;BME280;69636;52.372;13.610;2024-02-15T03:36:31;101480.97;;;8.32;100.00
80323;BME280;69636;52.372;13.610;2024-02-15T03:38:59;101479.78;;;8.36;100.00
80323;BME280;69636;52.372;13.610;2024-02-15T03:41:27;101480.28;;;8.41;100.00
80323;BME280;69636;52.372;13.610;2024-02-15T03:43:55;101478.81;;;8.37;100.00
80323;BME280;69636;52.372;13.610;2024-02-15T03:46:22;101487.00;;;8.34;100.00
80323;BME280;69636;52.372;13.610;2024-02-15T03:48:49;101487.72;;;8.36;100.00
80323;BME280;69636;52.372;13.610;2024-02-15T03:51:18;101490.59;;;8.33;100.00
80323;BME280;69636;52.372;13.610;2024-02-15T03:53:46;101491.09;;;8.38;100.00
80323;BME280;69636;52.372;13.610;2024-02-15T03:56:13;101483.53;;;8.44;100.00
80323;BME280;69636;52.372;13.610;2024-02-15T03:58:40;101487.38;;;8.40;100.00
80323;BME280;69636;52.372;13.610;2024-02-15T04:01:08;101487.25;;;8.42;100.00
80323;BME280;69636;52.372;13.610;2024-02-15T04:03:35;101482.06;;;8.40;100.00
80323;BME280;69636;52.372;13.610;2024-02-15T04:06:03;101486.53;;;8.51;100.00
80323;BME280;69636;52.372;13.610;2024-02-15T04:08:32;101480.16;;;8.54;100.00
80323;BME280;69636;52.372;13.610;2024-02-15T04:10:59;101489.91;;;8.53;100.00
80323;BME280;69636;52.372;13.610;2024-02-15T04:13:26;101489.28;;;8.49;100.00
80323;BME280;69636;52.372;13.610;2024-02-15T04:15:54;101484.59;;;8.53;100.00
80323;BME280;69636;52.372;13.610;2024-02-15T04:18:21;101481.47;;;8.48;100.00
80323;BME280;69636;52.372;13.610;2024-02-15T04:20:49;101482.56;;;8.45;100.00
80323;BME280;69636;52.372;13.610;2024-02-15T04:23:16;101481.22;;;8.51;100.00
80323;BME280;69636;52.372;13.610;2024-02-15T04:25:45;101479.78;;;8.47;100.00
80323;BME280;69636;52.372;13.610;2024-02-15T04:28:12;101481.59;;;8.46;100.00
80323;BME280;69636;52.372;13.610;2024-02-15T04:30:40;101482.19;;;8.50;100.00
80323;BME280;69636;52.372;13.610;2024-02-15T04:33:07;101486.53;;;8.51;100.00
80323;BME280;69636;52.372;13.610;2024-02-15T04:35:34;101490.63;;;8.55;100.00
80323;BME280;69636;52.372;13.610;2024-02-15T04:38:02;101487.97;;;8.55;100.00
80323;BME280;69636;52.372;13.610;2024-02-15T04:40:29;101483.47;;;8.67;100.00
80323;BME280;69636;52.372;13.610;2024-02-15T04:42:58;101490.94;;;8.62;100.00
80323;BME280;69636;52.372;13.610;2024-02-15T04:45:25;101484.09;;;8.59;100.00
80323;BME280;69636;52.372;13.610;2024-02-15T04:47:53;101486.63;;;8.61;100.00
80323;BME280;69636;52.372;13.610;2024-02-15T04:50:20;101484.38;;;8.56;100.00
80323;BME280;69636;52.372;13.610;2024-02-15T04:52:47;101486.84;;;8.58;100.00
80323;BME280;69636;52.372;13.610;2024-02-15T04:55:15;101473.97;;;8.64;100.00
80323;BME280;69636;52.372;13.610;2024-02-15T04:57:42;101475.78;;;8.64;100.00
80323;BME280;69636;52.372;13.610;2024-02-15T05:00:12;101485.66;;;8.62;100.00
80323;BME280;69636;52.372;13.610;2024-02-15T05:02:39;101486.63;;;8.61;100.00
80323;BME280;69636;52.372;13.610;2024-02-15T05:05:07;101486.97;;;8.67;100.00
80323;BME280;69636;52.372;13.610;2024-02-15T05:07:34;101485.28;;;8.66;100.00
80323;BME280;69636;52.372;13.610;2024-02-15T05:10:02;101491.66;;;8.64;100.00
80323;BME280;69636;52.372;13.610;2024-02-15T05:12:29;101488.91;;;8.65;100.00
80323;BME280;69636;52.372;13.610;2024-02-15T05:14:56;101489.75;;;8.66;100.00
80323;BME280;69636;52.372;13.610;2024-02-15T05:17:25;101493.94;;;8.68;100.00
80323;BME280;69636;52.372;13.610;2024-02-15T05:19:52;101492.50;;;8.64;100.00
80323;BME280;69636;52.372;13.610;2024-02-15T05:22:20;101498.53;;;8.66;100.00
80323;BME280;69636;52.372;13.610;2024-02-15T05:24:47;101495.88;;;8.66;100.00
80323;BME280;69636;52.372;13.610;2024-02-15T05:27:14;101491.53;;;8.65;100.00
80323;BME280;69636;52.372;13.610;2024-02-15T05:29:42;101480.00;;;8.66;100.00
80323;BME280;69636;52.372;13.610;2024-02-15T05:32:09;101489.75;;;8.66;100.00
80323;BME280;69636;52.372;13.610;2024-02-15T05:34:38;101486.72;;;8.70;100.00
80323;BME280;69636;52.372;13.610;2024-02-15T05:37:06;101489.38;;;8.70;100.00
80323;BME280;69636;52.372;13.610;2024-02-15T05:39:33;101489.38;;;8.70;100.00
80323;BME280;69636;52.372;13.610;2024-02-15T05:42:00;101493.94;;;8.68;100.00
80323;BME280;69636;52.372;13.610;2024-02-15T05:44:28;101495.88;;;8.66;100.00
80323;BME280;69636;52.372;13.610;2024-02-15T05:46:55;101479.88;;;8.68;100.00
80323;BME280;69636;52.372;13.610;2024-02-15T05:49:23;101484.09;;;8.70;100.00
80323;BME280;69636;52.372;13.610;2024-02-15T05:51:51;101483.38;;;8.68;100.00
80323;BME280;69636;52.372;13.610;2024-02-15T05:54:19;101489.75;;;8.66;100.00
80323;BME280;69636;52.372;13.610;2024-02-15T05:56:46;101498.16;;;8.71;100.00
80323;BME280;69636;52.372;13.610;2024-02-15T05:59:13;101500.94;;;8.69;100.00
80323;BME280;69636;52.372;13.610;2024-02-15T06:01:41;101503.69;;;8.68;100.00
80323;BME280;69636;52.372;13.610;2024-02-15T06:04:08;101499.25;;;8.68;100.00
80323;BME280;69636;52.372;13.610;2024-02-15T06:06:36;101500.94;;;8.69;100.00
80323;BME280;69636;52.372;13.610;2024-02-15T06:09:04;101507.91;;;8.70;100.00
80323;BME280;69636;52.372;13.610;2024-02-15T06:11:32;101504.19;;;8.73;100.00
80323;BME280;69636;52.372;13.610;2024-02-15T06:13:59;101507.63;;;8.84;100.00
80323;BME280;69636;52.372;13.610;2024-02-15T06:16:27;101501.13;;;8.89;100.00
80323;BME280;69636;52.372;13.610;2024-02-15T06:18:54;101508.03;;;8.80;100.00
80323;BME280;69636;52.372;13.610;2024-02-15T06:21:21;101502.13;;;8.76;100.00
80323;BME280;69636;52.372;13.610;2024-02-15T06:23:49;101498.41;;;8.79;100.00
80323;BME280;69636;52.372;13.610;2024-02-15T06:26:18;101501.88;;;8.79;100.00
80323;BME280;69636;52.372;13.610;2024-02-15T06:28:45;101516.09;;;8.78;100.00
80323;BME280;69636;52.372;13.610;2024-02-15T06:31:13;101507.63;;;8.84;100.00
80323;BME280;69636;52.372;13.610;2024-02-15T06:33:42;101505.38;;;8.80;100.00
80323;BME280;69636;52.372;13.610;2024-02-15T06:36:09;101512.47;;;8.79;100.00
80323;BME280;69636;52.372;13.610;2024-02-15T06:38:36;101511.00;;;8.87;100.00
80323;BME280;69636;52.372;13.610;2024-02-15T06:41:04;101516.28;;;8.98;100.00
80323;BME280;69636;52.372;13.610;2024-02-15T06:43:32;101512.31;;;8.92;100.00
80323;BME280;69636;52.372;13.610;2024-02-15T06:46:00;101515.91;;;8.91;100.00
80323;BME280;69636;52.372;13.610;2024-02-15T06:48:27;101523.28;;;8.88;100.00
80323;BME280;69636;52.372;13.610;2024-02-15T06:50:55;101518.69;;;8.90;100.00
80323;BME280;69636;52.372;13.610;2024-02-15T06:53:23;101519.88;;;8.97;100.00
80323;BME280;69636;52.372;13.610;2024-02-15T06:55:50;101526.50;;;8.91;100.00
80323;BME280;69636;52.372;13.610;2024-02-15T06:58:17;101530.72;;;8.94;100.00
80323;BME280;69636;52.372;13.610;2024-02-15T07:00:47;101532.88;;;9.00;100.00
80323;BME280;69636;52.372;13.610;2024-02-15T07:03:15;101533.59;;;9.02;100.00
80323;BME280;69636;52.372;13.610;2024-02-15T07:05:42;101539.81;;;9.12;100.00
80323;BME280;69636;52.372;13.610;2024-02-15T07:08:10;101536.00;;;9.05;100.00
80323;BME280;69636;52.372;13.610;2024-02-15T07:10:37;101539.38;;;9.07;100.00
80323;BME280;69636;52.372;13.610;2024-02-15T07:13:04;101537.28;;;9.10;100.00
80323;BME280;69636;52.372;13.610;2024-02-15T07:15:32;101541.75;;;9.10;100.00
80323;BME280;69636;52.372;13.610;2024-02-15T07:18:01;101533.31;;;9.16;100.00
80323;BME280;69636;52.372;13.610;2024-02-15T07:20:28;101535.63;;;9.41;100.00
80323;BME280;69636;52.372;13.610;2024-02-15T07:22:55;101535.44;;;9.33;100.00
80323;BME280;69636;52.372;13.610;2024-02-15T07:25:23;101533.16;;;9.29;100.00
80323;BME280;69636;52.372;13.610;2024-02-15T07:27:50;101549.06;;;9.29;100.00
80323;BME280;69636;52.372;13.610;2024-02-15T07:30:17;101550.16;;;9.26;100.00
80323;BME280;69636;52.372;13.610;2024-02-15T07:32:45;101551.00;;;9.27;100.00
80323;BME280;69636;52.372;13.610;2024-02-15T07:35:14;101545.81;;;9.25;100.00
80323;BME280;69636;52.372;13.610;2024-02-15T07:37:51;101545.81;;;9.25;100.00
80323;BME280;69636;52.372;13.610;2024-02-15T07:40:18;101542.91;;;9.28;100.00
80323;BME280;69636;52.372;13.610;2024-02-15T07:42:46;101540.63;;;9.35;100.00
80323;BME280;69636;52.372;13.610;2024-02-15T07:45:13;101540.81;;;9.43;100.00
80323;BME280;69636;52.372;13.610;2024-02-15T07:47:41;101552.25;;;9.43;100.00
80323;BME280;69636;52.372;13.610;2024-02-15T07:50:09;101542.63;;;9.42;100.00
80323;BME280;69636;52.372;13.610;2024-02-15T07:52:37;101546.81;;;9.45;100.00
80323;BME280;69636;52.372;13.610;2024-02-15T07:55:05;101539.72;;;9.45;100.00
80323;BME280;69636;52.372;13.610;2024-02-15T07:57:32;101543.31;;;9.44;100.00
80323;BME280;69636;52.372;13.610;2024-02-15T08:00:00;101536.81;;;9.48;100.00
80323;BME280;69636;52.372;13.610;2024-02-15T08:02:27;101544.63;;;9.50;100.00
80323;BME280;69636;52.372;13.610;2024-02-15T08:04:54;101540.19;;;9.50;100.00
80323;BME280;69636;52.372;13.610;2024-02-15T08:07:22;101541.28;;;9.69;100.00
80323;BME280;69636;52.372;13.610;2024-02-15T08:09:51;101544.41;;;9.74;100.00
80323;BME280;69636;52.372;13.610;2024-02-15T08:12:18;101548.53;;;9.87;100.00
80323;BME280;69636;52.372;13.610;2024-02-15T08:14:45;101545.38;;;9.73;100.00
80323;BME280;69636;52.372;13.610;2024-02-15T08:17:13;101540.56;;;9.67;100.00
80323;BME280;69636;52.372;13.610;2024-02-15T08:19:41;101538.13;;;9.75;100.00
80323;BME280;69636;52.372;13.610;2024-02-15T08:22:13;101534.25;;;9.79;100.00
80323;BME280;69636;52.372;13.610;2024-02-15T08:24:41;101535.81;;;9.81;100.00
80323;BME280;69636;52.372;13.610;2024-02-15T08:27:10;101536.19;;;9.77;100.00
80323;BME280;69636;52.372;13.610;2024-02-15T08:29:37;101538.75;;;9.88;100.00
80323;BME280;69636;52.372;13.610;2024-02-15T08:32:05;101545.09;;;9.97;100.00
80323;BME280;69636;52.372;13.610;2024-02-15T08:34:33;101543.31;;;9.97;100.00
80323;BME280;69636;52.372;13.610;2024-02-15T08:37:01;101548.94;;;10.04;100.00
80323;BME280;69636;52.372;13.610;2024-02-15T08:39:28;101552.03;;;10.09;100.00
80323;BME280;69636;52.372;13.610;2024-02-15T08:41:55;101556.38;;;10.10;100.00
80323;BME280;69636;52.372;13.610;2024-02-15T08:44:24;101553.53;;;10.23;100.00
80323;BME280;69636;52.372;13.610;2024-02-15T08:46:52;101557.50;;;10.17;100.00
80323;BME280;69636;52.372;13.610;2024-02-15T08:49:19;101551.78;;;10.12;100.00
80323;BME280;69636;52.372;13.610;2024-02-15T08:51:46;101546.88;;;10.07;100.00
80323;BME280;69636;52.372;13.610;2024-02-15T08:54:14;101553.41;;;10.03;100.00
80323;BME280;69636;52.372;13.610;2024-02-15T08:56:41;101551.63;;;10.13;100.00
80323;BME280;69636;52.372;13.610;2024-02-15T08:59:09;101552.31;;;10.06;100.00
80323;BME280;69636;52.372;13.610;2024-02-15T09:01:37;101550.38;;;10.17;100.00
80323;BME280;69636;52.372;13.610;2024-02-15T09:04:05;101553.28;;;10.26;100.00
80323;BME280;69636;52.372;13.610;2024-02-15T09:06:32;101546.53;;;10.22;100.00
80323;BME280;69636;52.372;13.610;2024-02-15T09:09:00;101545.56;;;10.23;100.00
80323;BME280;69636;52.372;13.610;2024-02-15T09:11:28;101543.66;;;10.13;100.00
80323;BME280;69636;52.372;13.610;2024-02-15T09:13:57;101548.22;;;10.23;100.00
80323;BME280;69636;52.372;13.610;2024-02-15T09:16:25;101545.50;;;10.34;100.00
80323;BME280;69636;52.372;13.610;2024-02-15T09:18:53;101547.06;;;10.36;100.00
80323;BME280;69636;52.372;13.610;2024-02-15T09:21:21;101546.63;;;10.41;100.00
80323;BME280;69636;52.372;13.610;2024-02-15T09:23:49;101547.97;;;10.56;100.00
80323;BME280;69636;52.372;13.610;2024-02-15T09:26:17;101549.53;;;10.59;100.00
80323;BME280;69636;52.372;13.610;2024-02-15T09:28:44;101541.41;;;10.60;100.00
80323;BME280;69636;52.372;13.610;2024-02-15T09:31:12;101543.13;;;10.71;100.00
80323;BME280;69636;52.372;13.610;2024-02-15T09:33:39;101534.25;;;11.01;100.00
80323;BME280;69636;52.372;13.610;2024-02-15T09:36:08;101540.16;;;11.23;100.00
80323;BME280;69636;52.372;13.610;2024-02-15T09:38:36;101540.72;;;11.46;100.00
80323;BME280;69636;52.372;13.610;2024-02-15T09:41:03;101539.91;;;11.36;100.00
80323;BME280;69636;52.372;13.610;2024-02-15T09:43:36;101541.84;;;11.25;100.00
80323;BME280;69636;52.372;13.610;2024-02-15T09:46:06;101546.28;;;11.05;100.00
80323;BME280;69636;52.372;13.610;2024-02-15T09:48:35;101553.97;;;10.98;100.00
80323;BME280;69636;52.372;13.610;2024-02-15T09:51:04;101558.56;;;10.86;100.00
80323;BME280;69636;52.372;13.610;2024-02-15T09:53:36;101559.41;;;10.87;100.00
80323;BME280;69636;52.372;13.610;2024-02-15T09:56:05;101551.13;;;10.80;100.00
80323;BME280;69636;52.372;13.610;2024-02-15T09:58:35;101564.53;;;10.79;100.00
80323;BME280;69636;52.372;13.610;2024-02-15T10:01:04;101571.22;;;10.73;100.00
80323;BME280;69636;52.372;13.610;2024-02-15T10:03:32;101565.59;;;10.67;100.00
80323;BME280;69636;52.372;13.610;2024-02-15T10:06:00;101570.22;;;10.65;100.00
80323;BME280;69636;52.372;13.610;2024-02-15T10:08:29;101571.75;;;10.67;100.00
80323;BME280;69636;52.372;13.610;2024-02-15T10:11:10;101573.22;;;10.81;100.00
80323;BME280;69636;52.372;13.610;2024-02-15T10:13:38;101571.09;;;10.75;100.00
80323;BME280;69636;52.372;13.610;2024-02-15T10:16:14;101569.59;;;10.82;100.00
80323;BME280;69636;52.372;13.610;2024-02-15T10:18:41;101573.34;;;10.79;100.00
80323;BME280;69636;52.372;13.610;2024-02-15T10:21:09;101570.81;;;10.78;100.00
80323;BME280;69636;52.372;13.610;2024-02-15T10:23:37;101569.97;;;10.77;100.00
80323;BME280;69636;52.372;13.610;2024-02-15T10:29:10;101562.47;;;10.92;100.00
80323;BME280;69636;52.372;13.610;2024-02-15T10:31:40;101562.47;;;10.92;100.00
80323;BME280;69636;52.372;13.610;2024-02-15T10:34:07;101554.94;;;10.97;100.00
80323;BME280;69636;52.372;13.610;2024-02-15T10:36:35;101563.06;;;11.05;100.00
80323;BME280;69636;52.372;13.610;2024-02-15T10:39:12;101564.03;;;11.04;100.00
80323;BME280;69636;52.372;13.610;2024-02-15T10:41:40;101560.00;;;11.10;100.00
80323;BME280;69636;52.372;13.610;2024-02-15T10:44:09;101556.94;;;11.24;100.00
80323;BME280;69636;52.372;13.610;2024-02-15T10:46:37;101558.06;;;11.31;100.00
80323;BME280;69636;52.372;13.610;2024-02-15T10:49:05;101550.81;;;11.52;100.00
80323;BME280;69636;52.372;13.610;2024-02-15T10:51:33;101554.44;;;11.71;100.00
80323;BME280;69636;52.372;13.610;2024-02-15T10:54:03;101543.78;;;11.71;100.00
80323;BME280;69636;52.372;13.610;2024-02-15T10:56:35;101551.53;;;11.83;100.00
80323;BME280;69636;52.372;13.610;2024-02-15T10:59:16;101550.22;;;11.97;100.00
80323;BME280;69636;52.372;13.610;2024-02-15T11:01:45;101548.56;;;11.96;100.00
80323;BME280;69636;52.372;13.610;2024-02-15T11:04:18;101550.06;;;12.18;100.00
80323;BME280;69636;52.372;13.610;2024-02-15T11:06:47;101539.69;;;12.52;100.00
80323;BME280;69636;52.372;13.610;2024-02-15T11:09:17;101536.50;;;13.92;100.00
80323;BME280;69636;52.372;13.610;2024-02-15T11:11:45;101537.22;;;14.54;100.00
80323;BME280;69636;52.372;13.610;2024-02-15T11:14:28;101542.06;;;13.99;100.00
80323;BME280;69636;52.372;13.610;2024-02-15T11:16:55;101539.91;;;13.41;100.00
80323;BME280;69636;52.372;13.610;2024-02-15T11:19:43;101538.38;;;12.93;100.00
80323;BME280;69636;52.372;13.610;2024-02-15T11:22:12;101536.84;;;12.90;100.00
80323;BME280;69636;52.372;13.610;2024-02-15T11:24:46;101538.72;;;12.80;100.00
80323;BME280;69636;52.372;13.610;2024-02-15T11:27:24;101538.72;;;12.80;100.00
80323;BME280;69636;52.372;13.610;2024-02-15T11:29:53;101536.31;;;12.60;100.00
80323;BME280;69636;52.372;13.610;2024-02-15T11:32:34;101536.66;;;12.47;100.00
80323;BME280;69636;52.372;13.610;2024-02-15T11:35:06;101532.41;;;12.54;100.00
80323;BME280;69636;52.372;13.610;2024-02-15T11:37:50;101527.91;;;12.54;100.00
80323;BME280;69636;52.372;13.610;2024-02-15T11:40:19;101534.00;;;12.47;100.00
80323;BME280;69636;52.372;13.610;2024-02-15T11:42:46;101529.94;;;12.43;100.00
80323;BME280;69636;52.372;13.610;2024-02-15T11:45:15;101536.00;;;12.35;100.00
80323;BME280;69636;52.372;13.610;2024-02-15T11:47:44;101527.44;;;12.41;100.00
80323;BME280;69636;52.372;13.610;2024-02-15T11:50:14;101522.28;;;12.57;100.00
80323;BME280;69636;52.372;13.610;2024-02-15T11:52:41;101524.16;;;12.75;100.00
80323;BME280;69636;52.372;13.610;2024-02-15T11:55:09;101524.91;;;12.95;100.00
80323;BME280;69636;52.372;13.610;2024-02-15T11:57:37;101518.25;;;12.81;100.00
80323;BME280;69636;52.372;13.610;2024-02-15T12:00:05;101530.31;;;12.75;100.00
80323;BME280;69636;52.372;13.610;2024-02-15T12:02:34;101526.69;;;12.76;100.00
80323;BME280;69636;52.372;13.610;2024-02-15T12:05:03;101529.84;;;12.62;100.00
80323;BME280;69636;52.372;13.610;2024-02-15T12:07:32;101525.47;;;12.43;100.00
80323;BME280;69636;52.372;13.610;2024-02-15T12:10:00;101523.94;;;12.41;100.00
80323;BME280;69636;52.372;13.610;2024-02-15T12:12:32;101528.84;;;12.36;100.00
80323;BME280;69636;52.372;13.610;2024-02-15T12:14:59;101524.94;;;12.30;100.00
80323;BME280;69636;52.372;13.610;2024-02-15T12:17:26;101522.81;;;12.34;100.00
80323;BME280;69636;52.372;13.610;2024-02-15T12:19:57;101518.19;;;12.36;100.00
80323;BME280;69636;52.372;13.610;2024-02-15T12:22:33;101517.22;;;12.37;100.00
80323;BME280;69636;52.372;13.610;2024-02-15T12:25:02;101518.81;;;12.47;100.00
80323;BME280;69636;52.372;13.610;2024-02-15T12:27:29;101515.44;;;12.55;100.00
80323;BME280;69636;52.372;13.610;2024-02-15T12:29:57;101509.53;;;12.61;100.00
80323;BME280;69636;52.372;13.610;2024-02-15T12:32:26;101509.38;;;12.63;100.00
80323;BME280;69636;52.372;13.610;2024-02-15T12:35:11;101506.56;;;12.64;100.00
80323;BME280;69636;52.372;13.610;2024-02-15T12:37:39;101496.22;;;12.61;100.00
80323;BME280;69636;52.372;13.610;2024-02-15T12:40:10;101490.28;;;12.67;100.00
80323;BME280;69636;52.372;13.610;2024-02-15T12:42:38;101490.22;;;12.77;100.00
80323;BME280;69636;52.372;13.610;2024-02-15T12:45:06;101486.19;;;12.73;100.00
80323;BME280;69636;52.372;13.610;2024-02-15T12:47:34;101481.78;;;12.81;100.00